McKinney's Hourly Summary for Sunday, July 8, 2018
Hour Temp
(f)
RH
(%)
Solar Rad.
(MJ/m2)
Rainfall
(in)
Wind
(mph)
7/8/2018 12:00 AM 79 66 0 0 0
7/8/2018 1:00 AM 78 70 0 0 0
7/8/2018 2:00 AM 77 74 0 0 0.04
7/8/2018 3:00 AM 76 80 0 0 0.08
7/8/2018 4:00 AM 75 83 0 0 0
7/8/2018 5:00 AM 74 87 0 0 0
7/8/2018 6:00 AM 73 92 0 0 0.03
7/8/2018 7:00 AM 73 94 0.04 0 0.13
7/8/2018 8:00 AM 75 80 0.46 0 0.9
7/8/2018 9:00 AM 78 72 1.12 0 3.31
7/8/2018 10:00 AM 82 65 1.76 0 2.66
7/8/2018 11:00 AM 85 59 2.3 0 3.39
7/8/2018 12:00 PM 87 52 2.5 0 3.7
7/8/2018 1:00 PM 89 49 2.71 0 4.84
7/8/2018 2:00 PM 91 46 2.58 0 4.65
7/8/2018 3:00 PM 92 41 2.58 0 4.6
7/8/2018 4:00 PM 93 41 2.27 0 4.77
7/8/2018 5:00 PM 93 39 2.15 0 4.41
7/8/2018 6:00 PM 93 40 1.49 0 4.11
7/8/2018 7:00 PM 92 39 0.79 0 4.78
7/8/2018 8:00 PM 91 39 0.4 0 3.78
7/8/2018 9:00 PM 84 54 0.04 0 6.76
7/8/2018 10:00 PM 78 73 0 0 3.39
7/8/2018 11:00 PM 77 75 0 0 0.77
Data Summary 82 62 23.19 0.00 2.55